Decoded Metar for LFGA (COLMAR in FRANCE) (IATA:CMR) | Meteo·Mobile Aviation Weather
aviador You're here:

LFGA Decoded Metar

COLMAR in FRANCE
Report Time2019-01-23 07:30:00
UTC Time2019-01-23 07:44:03
Flight Rules ifr IFR
Wind330° at 02 kt
W.Decomp.*RWY 01: 1.5 kt HW 1.3 kt LCW
W.Rank330° ranks 23
Current wind is below 330° avg. (4.0)
Visibility2800 m
Phenomena:Mist
Clouds:Few 013 Hf
Overcast 037 Hf
Expected CloudBase > 400 ft AGL from Temp-Dew spread
Ceiling3,700 ft
Temp-2°C
Dew Point-3°C (93% RH)
AAT-5.1°C
QNH0996 hPa
Raw Report
METAR LFGA 230730Z AUTO 33002KT 2800 BR FEW013 OVC037 M02/M03 Q0996=

Extra information for LFGA:More info

Metar Taf Metar & Taf Last 4 Metars F.Rules Stats Wind Profile Meteogram Temp Stats Airport Information Weather charts Add Link Nearby VenuesMetar ALERT Operation Metar Decoded Social comments